createdAt,value
2022-12-19T00:02:17.534Z,20.77
2022-12-19T00:05:04.412Z,21.13
2022-12-19T00:07:51.639Z,20.77
2022-12-19T00:10:38.283Z,19.70
2022-12-19T00:13:25.438Z,19.35
2022-12-19T00:16:14.789Z,20.75
2022-12-19T00:19:04.574Z,19.50
2022-12-19T00:21:51.559Z,21.27
2022-12-19T00:24:38.540Z,22.30
2022-12-19T00:27:24.727Z,20.15
2022-12-19T00:30:13.518Z,19.60
2022-12-19T00:33:00.331Z,21.75
2022-12-19T00:35:47.262Z,21.17
2022-12-19T00:38:34.459Z,17.50
2022-12-19T00:41:23.097Z,21.58
2022-12-19T00:44:12.492Z,19.23
2022-12-19T00:46:59.521Z,21.73
2022-12-19T00:49:45.880Z,17.45
2022-12-19T00:52:33.956Z,21.33
2022-12-19T00:55:21.311Z,20.02
2022-12-19T00:58:07.439Z,20.70
2022-12-19T01:00:54.310Z,18.20
2022-12-19T01:03:52.894Z,21.17
2022-12-19T01:06:47.425Z,19.88
2022-12-19T01:09:35.857Z,18.80
2022-12-19T01:12:41.249Z,19.63
2022-12-19T01:15:27.519Z,21.27
2022-12-19T01:18:14.131Z,20.33
2022-12-19T01:21:01.184Z,18.15
2022-12-19T01:23:47.506Z,21.88
2022-12-19T01:26:33.675Z,25.42
2022-12-19T01:29:20.708Z,21.33
2022-12-19T01:32:07.670Z,17.10
2022-12-19T01:34:55.235Z,20.75
2022-12-19T01:37:41.834Z,17.17
2022-12-19T01:40:28.354Z,17.45
2022-12-19T01:43:15.864Z,16.45
2022-12-19T01:46:04.050Z,20.25
2022-12-19T01:48:50.473Z,21.83
2022-12-19T01:51:44.579Z,19.52
2022-12-19T01:54:34.120Z,18.33
2022-12-19T01:57:20.976Z,17.73
2022-12-19T02:00:10.071Z,17.55
2022-12-19T02:03:08.254Z,15.95
2022-12-19T02:05:58.725Z,19.08
2022-12-19T02:08:47.213Z,16.58
2022-12-19T02:11:33.618Z,16.05
2022-12-19T02:14:21.020Z,17.58
2022-12-19T02:17:07.711Z,17.80
2022-12-19T02:20:13.338Z,16.25
2022-12-19T02:23:06.906Z,18.73
2022-12-19T02:26:09.126Z,18.38
2022-12-19T02:29:07.744Z,16.33
2022-12-19T02:32:03.300Z,19.60
2022-12-19T02:34:56.484Z,21.75
2022-12-19T02:37:46.415Z,16.70
2022-12-19T02:40:35.099Z,18.00
2022-12-19T02:43:22.468Z,16.55
2022-12-19T02:46:13.665Z,19.35
2022-12-19T02:49:00.375Z,18.80
2022-12-19T02:51:46.642Z,18.58
2022-12-19T02:54:33.133Z,21.23
2022-12-19T02:57:30.914Z,19.15
2022-12-19T03:00:22.134Z,15.85
2022-12-19T03:03:31.427Z,16.70
2022-12-19T03:06:30.754Z,19.35
2022-12-19T03:09:21.626Z,21.80
2022-12-19T03:12:14.237Z,18.83
2022-12-19T03:15:04.033Z,20.88
2022-12-19T03:17:51.622Z,18.17
2022-12-19T03:20:57.322Z,21.90
2022-12-19T03:23:44.234Z,22.25
2022-12-19T03:26:33.622Z,21.65
2022-12-19T03:29:26.788Z,21.45
2022-12-19T03:35:04.264Z,21.05
2022-12-19T03:37:53.686Z,22.77
2022-12-19T03:40:41.645Z,22.17
2022-12-19T03:43:29.271Z,23.42
2022-12-19T03:46:21.921Z,21.25
2022-12-19T03:49:08.595Z,23.48
2022-12-19T03:52:01.900Z,22.48
2022-12-19T03:54:51.538Z,25.20
2022-12-19T03:57:41.779Z,24.83
2022-12-19T04:00:28.723Z,26.33
2022-12-19T04:03:17.347Z,29.58
2022-12-19T04:06:04.517Z,27.80
2022-12-19T04:12:01.581Z,33.58
2022-12-19T04:14:47.924Z,33.25
2022-12-19T04:21:09.366Z,31.35
2022-12-19T04:24:01.968Z,31.75
2022-12-19T04:29:57.524Z,34.53
2022-12-19T04:32:45.285Z,33.28
2022-12-19T04:35:31.929Z,34.47
2022-12-19T04:38:27.052Z,34.65
2022-12-19T04:41:13.647Z,36.65
2022-12-19T04:44:01.216Z,41.20
2022-12-19T04:46:47.647Z,36.92
2022-12-19T04:49:41.075Z,36.22
2022-12-19T04:52:27.615Z,42.70
2022-12-19T04:55:13.936Z,39.55
2022-12-19T04:58:00.522Z,46.13
2022-12-19T05:00:47.003Z,37.88
2022-12-19T05:03:33.651Z,42.65
2022-12-19T05:06:21.557Z,42.00
2022-12-19T05:09:12.083Z,44.08
2022-12-19T05:11:58.532Z,42.38
2022-12-19T05:14:44.870Z,43.60
2022-12-19T05:17:34.154Z,46.47
2022-12-19T05:20:20.606Z,46.35
2022-12-19T05:23:14.105Z,49.10
2022-12-19T05:26:03.857Z,53.90
2022-12-19T05:28:50.825Z,45.53
2022-12-19T05:31:37.387Z,47.35
2022-12-19T05:34:24.608Z,49.35
2022-12-19T05:37:10.937Z,54.10
2022-12-19T05:39:57.187Z,48.67
2022-12-19T05:42:43.480Z,50.42
2022-12-19T05:45:29.585Z,52.47
2022-12-19T05:48:15.806Z,54.97
2022-12-19T05:51:27.410Z,59.42
2022-12-19T05:54:13.804Z,51.78
2022-12-19T05:57:00.675Z,51.03
2022-12-19T05:59:46.977Z,53.03
2022-12-19T06:02:33.685Z,59.35
2022-12-19T06:05:20.637Z,54.50
2022-12-19T06:08:06.947Z,54.22
2022-12-19T06:11:03.031Z,57.58
2022-12-19T06:13:49.576Z,55.30
2022-12-19T06:16:35.596Z,59.17
2022-12-19T06:19:22.347Z,59.05
2022-12-19T06:22:10.106Z,51.05
2022-12-19T06:24:59.698Z,54.63
2022-12-19T06:27:46.027Z,57.38
2022-12-19T06:30:49.759Z,59.65
2022-12-19T06:33:35.873Z,56.00
2022-12-19T06:36:22.248Z,57.92
2022-12-19T06:39:08.494Z,57.60
2022-12-19T06:42:13.198Z,61.80
2022-12-19T06:45:00.316Z,60.85
2022-12-19T06:47:46.926Z,58.05
2022-12-19T06:50:33.092Z,60.28
2022-12-19T06:53:19.178Z,68.00
2022-12-19T06:56:06.026Z,61.60
2022-12-19T06:58:52.147Z,61.72
2022-12-19T07:01:57.218Z,61.60
2022-12-19T07:04:47.682Z,62.90
2022-12-19T07:07:33.786Z,63.95
2022-12-19T07:10:20.295Z,70.78
2022-12-19T07:13:06.554Z,67.00
2022-12-19T07:15:53.733Z,73.15
2022-12-19T07:18:40.775Z,63.80
2022-12-19T07:21:27.267Z,69.68
2022-12-19T07:24:15.161Z,68.72
2022-12-19T07:27:01.720Z,64.82
2022-12-19T07:29:48.086Z,65.38
2022-12-19T07:32:34.845Z,67.30
2022-12-19T07:35:22.538Z,66.88
2022-12-19T07:38:09.170Z,70.15
2022-12-19T07:40:55.259Z,60.83
2022-12-19T07:43:41.839Z,64.25
2022-12-19T07:46:30.306Z,66.28
2022-12-19T07:49:21.083Z,69.90
2022-12-19T07:52:09.011Z,63.30
2022-12-19T07:54:55.963Z,70.28
2022-12-19T07:57:42.277Z,71.50
2022-12-19T08:00:28.460Z,69.63
2022-12-19T08:03:14.991Z,69.90
2022-12-19T08:06:02.046Z,67.55
2022-12-19T08:08:48.568Z,70.68
2022-12-19T08:11:34.708Z,68.07
2022-12-19T08:14:20.953Z,67.82
2022-12-19T08:17:23.309Z,69.60
2022-12-19T08:20:09.819Z,68.65
2022-12-19T08:22:56.242Z,62.22
2022-12-19T08:25:42.378Z,73.05
2022-12-19T08:28:28.859Z,68.45
2022-12-19T08:31:16.531Z,67.55
2022-12-19T08:34:02.733Z,69.68
2022-12-19T08:36:48.941Z,67.70
2022-12-19T08:39:35.319Z,66.25
2022-12-19T08:42:21.288Z,63.35
2022-12-19T08:45:08.051Z,66.60
2022-12-19T08:47:55.443Z,67.68
2022-12-19T08:50:41.735Z,73.32
2022-12-19T08:53:28.729Z,61.38
2022-12-19T08:56:16.206Z,65.68
2022-12-19T08:59:02.791Z,62.20
2022-12-19T09:01:49.248Z,56.63
2022-12-19T09:06:00.037Z,66.90
2022-12-19T09:07:42.137Z,70.30
2022-12-19T09:10:28.258Z,62.33
2022-12-19T09:13:14.404Z,62.10
2022-12-19T09:16:01.945Z,63.72
2022-12-19T09:18:49.669Z,68.03
2022-12-19T09:21:36.339Z,60.40
2022-12-19T09:24:22.891Z,62.38
2022-12-19T09:27:09.437Z,67.60
2022-12-19T09:29:55.476Z,56.45
2022-12-19T09:32:41.507Z,64.65
2022-12-19T09:35:30.425Z,55.88
2022-12-19T09:38:16.692Z,57.05
2022-12-19T09:41:02.747Z,61.25
2022-12-19T09:44:07.937Z,64.55
2022-12-19T09:46:57.070Z,69.13
2022-12-19T09:49:44.777Z,62.22
2022-12-19T09:52:36.417Z,63.20
2022-12-19T09:55:32.856Z,67.68
2022-12-19T09:58:39.526Z,66.05
2022-12-19T10:01:45.802Z,67.15
2022-12-19T10:04:34.402Z,63.92
2022-12-19T10:07:52.960Z,62.00
2022-12-19T10:12:40.846Z,64.97
2022-12-19T10:13:50.739Z,58.35
2022-12-19T10:16:52.158Z,63.65
2022-12-19T10:20:10.361Z,58.65
2022-12-19T10:23:01.750Z,50.95
2022-12-19T10:26:00.601Z,61.42
2022-12-19T10:28:46.692Z,57.25
2022-12-19T10:31:45.791Z,57.30
2022-12-19T10:34:41.568Z,62.38
2022-12-19T10:37:41.057Z,60.22
2022-12-19T10:40:35.224Z,57.45
2022-12-19T10:43:32.356Z,60.10
2022-12-19T10:46:28.757Z,58.83
2022-12-19T10:49:19.360Z,65.75
2022-12-19T10:52:27.493Z,57.78
2022-12-19T10:55:26.904Z,64.95
2022-12-19T10:58:13.379Z,62.35
2022-12-19T11:01:05.933Z,54.08
2022-12-19T11:04:12.700Z,55.47
2022-12-19T11:07:05.385Z,57.53
2022-12-19T11:10:03.717Z,55.70
2022-12-19T11:17:37.146Z,62.80
2022-12-19T11:24:00.789Z,58.50
2022-12-19T11:29:24.990Z,53.50
2022-12-19T11:29:53.413Z,57.08
2022-12-19T11:30:05.172Z,58.22
2022-12-19T11:30:46.943Z,56.63
2022-12-19T11:35:24.783Z,58.60
2022-12-19T11:38:14.658Z,55.75
2022-12-19T11:41:03.886Z,52.70
2022-12-19T11:44:03.556Z,53.15
2022-12-19T11:47:00.548Z,55.40
2022-12-19T11:49:49.678Z,57.10
2022-12-19T11:55:52.399Z,56.97
2022-12-19T11:58:38.765Z,50.42
2022-12-19T12:01:31.947Z,50.85
2022-12-19T12:04:33.670Z,54.28
2022-12-19T12:08:25.048Z,56.05
2022-12-19T12:15:19.056Z,51.42
2022-12-19T12:24:15.030Z,49.17
2022-12-19T12:31:00.412Z,50.42
2022-12-19T12:31:23.392Z,48.90
2022-12-19T12:31:43.658Z,48.55
2022-12-19T12:31:50.264Z,50.85
2022-12-19T12:35:05.928Z,45.20
2022-12-19T12:35:40.778Z,50.58
2022-12-19T12:40:48.093Z,46.42
2022-12-19T12:43:40.747Z,47.20
2022-12-19T12:46:28.680Z,49.75
2022-12-19T12:49:24.340Z,48.38
2022-12-19T12:52:14.685Z,51.13
2022-12-19T12:55:05.623Z,50.65
2022-12-19T12:57:52.009Z,53.17
2022-12-19T13:00:38.462Z,47.85
2022-12-19T13:03:26.194Z,47.45
2022-12-19T13:06:27.039Z,52.20
2022-12-19T13:09:19.756Z,47.38
2022-12-19T13:12:43.669Z,49.00
2022-12-19T13:15:32.643Z,50.92
2022-12-19T13:18:36.366Z,48.58
2022-12-19T13:21:23.392Z,49.85
2022-12-19T13:24:15.991Z,47.40
2022-12-19T13:27:02.532Z,42.78
2022-12-19T13:30:01.215Z,43.33
2022-12-19T13:32:47.512Z,51.85
2022-12-19T13:39:30.762Z,45.35
2022-12-19T13:40:01.589Z,42.97
2022-12-19T13:42:27.515Z,44.97
2022-12-19T13:45:23.123Z,48.08
2022-12-19T13:48:16.412Z,45.70
2022-12-19T13:53:59.054Z,48.17
2022-12-19T13:56:46.142Z,45.30
2022-12-19T13:59:35.350Z,53.25
2022-12-19T14:02:27.636Z,49.13
2022-12-19T14:06:17.832Z,43.20
2022-12-19T14:08:40.847Z,48.25
2022-12-19T14:11:55.586Z,52.78
2022-12-19T14:14:58.082Z,45.10
2022-12-19T14:18:42.571Z,49.85
2022-12-19T14:22:04.926Z,49.75
2022-12-19T14:24:34.330Z,47.80
2022-12-19T14:28:26.021Z,50.10
2022-12-19T14:30:33.808Z,49.03
2022-12-19T14:33:45.423Z,47.13
2022-12-19T14:36:31.300Z,49.38
2022-12-19T14:39:26.951Z,51.38
2022-12-19T14:43:48.076Z,46.17
2022-12-19T14:52:11.611Z,48.30
2022-12-19T14:52:53.720Z,43.92
2022-12-19T14:54:55.167Z,47.40
2022-12-19T14:56:17.493Z,51.80
2022-12-19T14:58:55.686Z,48.28
2022-12-19T15:01:43.206Z,53.72
2022-12-19T15:04:52.947Z,55.63
2022-12-19T15:07:42.227Z,49.63
2022-12-19T15:11:06.609Z,52.13
2022-12-19T15:14:52.797Z,55.58
2022-12-19T15:16:47.237Z,53.40
2022-12-19T15:19:33.935Z,49.03
2022-12-19T15:22:20.222Z,47.53
2022-12-19T15:25:13.513Z,57.85
2022-12-19T15:28:35.078Z,51.43
2022-12-19T15:31:35.149Z,52.87
2022-12-19T15:34:35.476Z,52.03
2022-12-19T15:37:23.155Z,49.17
2022-12-19T15:40:15.191Z,53.00
2022-12-19T15:43:01.598Z,48.13
2022-12-19T15:45:49.403Z,43.42
2022-12-19T15:48:38.733Z,45.42
2022-12-19T15:51:24.940Z,48.22
2022-12-19T15:57:29.907Z,53.28
2022-12-19T16:00:16.257Z,51.97
2022-12-19T16:06:19.122Z,48.92
2022-12-19T16:09:25.729Z,59.78
2022-12-19T16:12:15.657Z,47.78
2022-12-19T16:15:02.550Z,49.35
2022-12-19T16:17:48.907Z,48.38
2022-12-19T16:20:40.021Z,51.70
2022-12-19T16:23:26.862Z,58.55
2022-12-19T16:26:40.670Z,52.38
2022-12-19T16:29:29.806Z,52.20
2022-12-19T16:32:17.127Z,49.42
2022-12-19T16:35:03.685Z,48.58
2022-12-19T16:37:50.458Z,50.42
2022-12-19T16:40:36.637Z,45.55
2022-12-19T16:43:30.914Z,49.22
2022-12-19T16:46:18.944Z,55.67
2022-12-19T16:49:06.771Z,50.03
2022-12-19T16:51:53.311Z,49.38
2022-12-19T16:54:39.597Z,51.78
2022-12-19T16:57:25.959Z,51.30
2022-12-19T17:00:17.073Z,49.80
2022-12-19T17:03:15.826Z,52.28
2022-12-19T17:06:02.816Z,50.60
2022-12-19T17:08:49.968Z,49.40
2022-12-19T17:11:36.627Z,52.13
2022-12-19T17:14:25.560Z,56.20
2022-12-19T17:17:15.689Z,48.60
2022-12-19T17:20:02.400Z,48.33
2022-12-19T17:22:48.964Z,49.22
2022-12-19T17:25:35.612Z,46.47
2022-12-19T17:28:21.900Z,44.70
2022-12-19T17:31:11.898Z,52.08
2022-12-19T17:33:58.575Z,45.55
2022-12-19T17:36:45.470Z,47.63
2022-12-19T17:39:33.247Z,44.53
2022-12-19T17:42:21.912Z,47.15
2022-12-19T17:45:09.017Z,45.63
2022-12-19T17:48:02.345Z,41.10
2022-12-19T17:50:49.387Z,45.00
2022-12-19T17:53:36.190Z,43.00
2022-12-19T17:56:22.461Z,48.47
2022-12-19T17:59:09.339Z,47.97
2022-12-19T18:01:55.880Z,44.45
2022-12-19T18:04:42.500Z,42.13
2022-12-19T18:07:29.186Z,42.42
2022-12-19T18:10:19.376Z,42.08
2022-12-19T18:13:05.696Z,39.08
2022-12-19T18:15:54.449Z,41.20
2022-12-19T18:18:41.503Z,41.38
2022-12-19T18:21:28.384Z,42.88
2022-12-19T18:24:17.063Z,40.85
2022-12-19T18:27:03.553Z,37.88
2022-12-19T18:29:49.880Z,41.67
2022-12-19T18:32:36.126Z,35.78
2022-12-19T18:35:23.529Z,39.83
2022-12-19T18:38:13.324Z,41.80
2022-12-19T18:40:59.934Z,40.38
2022-12-19T18:43:46.607Z,40.55
2022-12-19T18:46:34.477Z,40.15
2022-12-19T18:49:21.231Z,35.38
2022-12-19T18:52:10.886Z,35.03
2022-12-19T18:54:57.246Z,35.20
2022-12-19T18:57:45.067Z,33.63
2022-12-19T19:00:58.997Z,35.90
2022-12-19T19:07:33.334Z,32.30
2022-12-19T19:10:29.969Z,38.00
2022-12-19T19:13:30.370Z,34.75
2022-12-19T19:19:07.973Z,32.67
2022-12-19T19:22:05.425Z,37.10
2022-12-19T19:24:54.993Z,39.72
2022-12-19T19:34:14.846Z,35.45
2022-12-19T19:37:05.074Z,38.13
2022-12-19T19:39:51.960Z,33.50
2022-12-19T19:42:49.281Z,35.00
2022-12-19T19:45:42.808Z,35.70
2022-12-19T19:48:30.073Z,36.90
2022-12-19T19:51:16.873Z,37.15
2022-12-19T19:54:03.361Z,39.83
2022-12-19T19:56:50.138Z,40.20
2022-12-19T19:59:36.357Z,40.70
2022-12-19T20:02:22.673Z,38.20
2022-12-19T20:05:09.691Z,37.60
2022-12-19T20:07:56.519Z,35.88
2022-12-19T20:10:42.863Z,39.45
2022-12-19T20:13:32.818Z,34.38
2022-12-19T20:16:19.843Z,38.35
2022-12-19T20:19:06.329Z,34.55
2022-12-19T20:21:53.292Z,41.22
2022-12-19T20:24:39.483Z,35.30
2022-12-19T20:27:25.824Z,38.10
2022-12-19T20:30:13.617Z,35.58
2022-12-19T20:33:00.189Z,41.20
2022-12-19T20:35:46.250Z,40.92
2022-12-19T20:38:33.384Z,35.75
2022-12-19T20:41:20.083Z,34.50
2022-12-19T20:44:06.397Z,35.97
2022-12-19T20:46:53.269Z,39.17
2022-12-19T20:49:39.621Z,35.53
2022-12-19T20:52:25.930Z,38.85
2022-12-19T20:55:12.645Z,32.03
2022-12-19T20:57:59.233Z,45.35
2022-12-19T21:00:46.118Z,36.60
2022-12-19T21:03:32.644Z,35.58
2022-12-19T21:06:20.943Z,37.00
2022-12-19T21:09:07.612Z,43.67
2022-12-19T21:16:15.224Z,38.55
2022-12-19T21:19:03.780Z,37.08
2022-12-19T21:27:59.707Z,37.70
2022-12-19T21:30:46.316Z,38.50
2022-12-19T21:33:33.500Z,43.70
2022-12-19T21:36:20.917Z,38.15
2022-12-19T21:39:07.526Z,35.90
2022-12-19T21:41:53.931Z,39.80
2022-12-19T21:44:40.776Z,40.90
2022-12-19T21:47:27.710Z,42.22
2022-12-19T21:50:15.253Z,38.95
2022-12-19T21:53:02.341Z,38.63
2022-12-19T21:55:49.217Z,38.20
2022-12-19T21:58:35.757Z,39.10
2022-12-19T22:01:22.461Z,40.80
2022-12-19T22:04:12.398Z,36.50
2022-12-19T22:06:59.074Z,41.92
2022-12-19T22:09:46.030Z,38.38
2022-12-19T22:12:32.411Z,39.13
2022-12-19T22:15:18.914Z,46.22
2022-12-19T22:18:05.449Z,38.95
2022-12-19T22:20:51.929Z,38.10
2022-12-19T22:23:38.297Z,43.47
2022-12-19T22:26:25.392Z,40.17
2022-12-19T22:29:14.377Z,39.67
2022-12-19T22:32:01.195Z,42.25
2022-12-19T22:34:50.560Z,42.03
2022-12-19T22:37:37.128Z,41.72
2022-12-19T22:40:24.056Z,40.42
2022-12-19T22:43:10.108Z,37.53
2022-12-19T22:45:56.419Z,42.92
2022-12-19T22:48:42.912Z,40.50
2022-12-19T22:51:29.927Z,40.58
2022-12-19T22:54:16.466Z,40.33
2022-12-19T22:57:02.882Z,44.40
2022-12-19T22:59:49.257Z,43.50
2022-12-19T23:02:35.729Z,43.28
2022-12-19T23:05:22.585Z,40.17
2022-12-19T23:08:08.993Z,40.10
2022-12-19T23:10:55.254Z,42.88
2022-12-19T23:13:42.175Z,42.80
2022-12-19T23:16:28.318Z,45.63
2022-12-19T23:19:18.012Z,40.67
2022-12-19T23:22:04.052Z,40.33
2022-12-19T23:24:50.483Z,43.60
2022-12-19T23:27:36.865Z,40.75
2022-12-19T23:30:23.091Z,47.38
2022-12-19T23:33:09.842Z,44.97
2022-12-19T23:35:56.144Z,46.40
2022-12-19T23:38:43.555Z,42.95
2022-12-19T23:41:29.729Z,42.35
2022-12-19T23:44:16.134Z,37.92
2022-12-19T23:47:03.836Z,45.55
2022-12-19T23:49:50.796Z,42.47
2022-12-19T23:52:36.966Z,41.63
2022-12-19T23:55:23.547Z,46.22
2022-12-19T23:58:15.526Z,40.40
